Terminal Aerodrome Forecast
Issued by NWS

Home | Current Version | Previous Version | Text Only | Print | Product List | Glossary On
Versions: 1 2 3 4 5 6 7 8 9 10 11 12 13 14 15 16 17 18 19 20 21 22 23 24 25 26 27 28 29 30 31 32
280
FTUS45 KRIW 220539
TAFPNA
TAF
KPNA 220539Z 2206/2306 29007KT P6SM VCSH SCT030 BKN080
      TEMPO 2206/2209 3SM -SHSN BKN030
     FM220900 29010KT P6SM SCT050 BKN080
     FM230000 VRB04KT P6SM VCSH BKN040
      AMD LTD TO CLD VIS AND WIND=

USA.gov is the U.S. government's official web portal to all federal, state and local government web resources and services.